Time;durP1;ratioP1;P1;durP2;ratioP2;P2;SDS_P1;SDS_P2;PMS_P1;PMS_P2;Temp;Humidity;BMP_temperature;BMP_pressure;BME280_temperature;BME280_humidity;BME280_pressure;Samples;Min_cycle;Max_cycle;Signal;HPM_P1;HPM_P2
2023/07/10 00:00:28;;;;;;;;;;;;;;;;;;10207525;28;19975;-69
2023/07/10 00:05:24;;;;;;;;;;;;;;;;;;10218227;28;20001;-69
2023/07/10 00:10:20;;;;;;;;;;;;;;;;;;10206759;28;19956;-69
2023/07/10 00:15:18;;;;;;;;;;;;;;;;;;10224997;28;19921;-69
2023/07/10 00:20:14;;;;;;;;;;;;;;;;;;10227261;28;20511;-68
2023/07/10 00:25:10;;;;;;;;;;;;;;;;;;10229754;28;19971;-69
2023/07/10 00:30:07;;;;;;;;;;;;;;;;;;10228073;28;19921;-69
2023/07/10 00:35:03;;;;;;;;;;;;;;;;;;10219154;28;19921;-68
2023/07/10 00:40:00;;;;;;;;;;;;;;;;;;10228350;28;19967;-68
2023/07/10 00:44:56;;;;;;;;;;;;;;;;;;10227245;28;19921;-67
2023/07/10 00:49:52;;;;;;;;;;;;;;;;;;10224243;28;20010;-67
2023/07/10 00:54:49;;;;;;;;;;;;;;;;;;10222642;28;19956;-66
2023/07/10 00:59:45;;;;;;;;;;;;;;;;;;10216547;28;19921;-67
2023/07/10 01:09:52;;;;;;;;;;;;;;;;;;10306941;23;19922;-67
2023/07/10 01:14:48;;;;;;;;;;;;;;;;;;10031741;28;20407;-67
2023/07/10 01:19:45;;;;;;;;;;;;;;;;;;10041960;28;19958;-67
2023/07/10 01:24:42;;;;;;;;;;;;;;;;;;10046034;28;20332;-67
2023/07/10 01:29:41;;;;;;;;;;;;;;;;;;10025308;28;19949;-66
2023/07/10 01:34:38;;;;;;;;;;;;;;;;;;10040689;28;20328;-66
2023/07/10 01:39:34;;;;;;;;;;;;;;;;;;10035751;28;20005;-66
2023/07/10 01:44:33;;;;;;;;;;;;;;;;;;10024506;28;19969;-66
2023/07/10 01:49:29;;;;;;;;;;;;;;;;;;10034889;28;19966;-66
2023/07/10 01:54:26;;;;;;;;;;;;;;;;;;10022301;28;20639;-66
2023/07/10 01:59:22;;;;;;;;;;;;;;;;;;10039916;28;19928;-67
2023/07/10 02:04:18;;;;;;;;;;;;;;;;;;10032047;28;19954;-67
2023/07/10 02:09:14;;;;;;;;;;;;;;;;;;10035419;28;19930;-67
2023/07/10 02:14:10;;;;;;;;;;;;;;;;;;10019811;28;20336;-66
2023/07/10 02:19:09;;;;;;;;;;;;;;;;;;10031324;28;20017;-67
2023/07/10 02:24:06;;;;;;;;;;;;;;;;;;10035693;28;19983;-65
2023/07/10 02:29:02;;;;;;;;;;;;;;;;;;10021702;28;19965;-66
2023/07/10 02:33:58;;;;;;;;;;;;;;;;;;10029171;28;20543;-66
2023/07/10 02:38:55;;;;;;;;;;;;;;;;;;10024243;28;20318;-65
2023/07/10 02:43:51;;;;;;;;;;;;;;;;;;10024189;28;19922;-65
2023/07/10 02:48:48;;;;;;;;;;;;;;;;;;10016561;28;20344;-65
2023/07/10 02:53:44;;;;;;;;;;;;;;;;;;10021369;28;19947;-66
2023/07/10 02:58:41;;;;;;;;;;;;;;;;;;10027206;28;19934;-65
2023/07/10 03:03:43;;;;;;;;;;;;;;;;;;10033657;28;19962;-66
2023/07/10 03:08:40;;;;;;;;;;;;;;;;;;10033776;28;19923;-65
2023/07/10 03:13:37;;;;;;;;;;;;;;;;;;10016458;28;19962;-65
2023/07/10 03:18:35;;;;;;;;;;;;;;;;;;10023572;28;19978;-65
2023/07/10 03:23:32;;;;;;;;;;;;;;;;;;10028038;28;19923;-65
2023/07/10 03:28:28;;;;;;;;;;;;;;;;;;10018441;28;20530;-67
2023/07/10 03:33:24;;;;;;;;;;;;;;;;;;10031289;28;20344;-67
2023/07/10 03:38:20;;;;;;;;;;;;;;;;;;10030463;28;19929;-67
2023/07/10 03:43:16;;;;;;;;;;;;;;;;;;10040570;28;19930;-68
2023/07/10 03:48:13;;;;;;;;;;;;;;;;;;10023234;28;19923;-67
2023/07/10 03:53:09;;;;;;;;;;;;;;;;;;10027744;28;20017;-68
2023/07/10 03:58:05;;;;;;;;;;;;;;;;;;10024812;28;19950;-68
2023/07/10 04:03:01;;;;;;;;;;;;;;;;;;10037768;28;20403;-66
2023/07/10 04:07:58;;;;;;;;;;;;;;;;;;10039372;28;20029;-65
2023/07/10 04:12:54;;;;;;;;;;;;;;;;;;10036955;28;19934;-66
2023/07/10 04:17:50;;;;;;;;;;;;;;;;;;10037969;28;19977;-66
2023/07/10 04:22:46;;;;;;;;;;;;;;;;;;10048310;28;19923;-66
2023/07/10 04:27:43;;;;;;;;;;;;;;;;;;10036508;28;20017;-66
2023/07/10 04:32:39;;;;;;;;;;;;;;;;;;10033629;28;19922;-65
2023/07/10 04:37:35;;;;;;;;;;;;;;;;;;10036569;28;19927;-67
2023/07/10 04:42:31;;;;;;;;;;;;;;;;;;10025343;28;19968;-68
2023/07/10 04:47:27;;;;;;;;;;;;;;;;;;10020579;28;19926;-66
2023/07/10 04:52:24;;;;;;;;;;;;;;;;;;10020554;28;19932;-67
2023/07/10 04:57:20;;;;;;;;;;;;;;;;;;10019385;28;20360;-67
2023/07/10 05:02:16;;;;;;;;;;;;;;;;;;10036346;28;19978;-67
2023/07/10 05:07:13;;;;;;;;;;;;;;;;;;10056965;28;20017;-67
2023/07/10 05:12:09;;;;;;;;;;;;;;;;;;10030957;28;19970;-67
2023/07/10 05:17:05;;;;;;;;;;;;;;;;;;10018083;28;20324;-67
2023/07/10 05:22:01;;;;;;;;;;;;;;;;;;10043509;28;19942;-67
2023/07/10 05:26:58;;;;;;;;;;;;;;;;;;10025464;28;19977;-67
2023/07/10 05:31:55;;;;;;;;;;;;;;;;;;10035176;28;20351;-66
2023/07/10 05:36:51;;;;;;;;;;;;;;;;;;10029396;28;20013;-67
2023/07/10 05:41:47;;;;;;;;;;;;;;;;;;10034057;28;20423;-68
2023/07/10 05:46:43;;;;;;;;;;;;;;;;;;10029073;28;19994;-67
2023/07/10 05:51:40;;;;;;;;;;;;;;;;;;10032649;28;19966;-67
2023/07/10 05:56:36;;;;;;;;;;;;;;;;;;10021717;28;19926;-68
2023/07/10 06:01:32;;;;;;;;;;;;;;;;;;10031361;28;20320;-68
2023/07/10 06:06:29;;;;;;;;;;;;;;;;;;10023724;28;20027;-67
2023/07/10 06:11:25;;;;;;;;;;;;;;;;;;10027332;28;19926;-68
2023/07/10 06:16:21;;;;;;;;;;;;;;;;;;10024441;28;20002;-68
2023/07/10 06:21:17;;;;;;;;;;;;;;;;;;10030357;28;19923;-70
2023/07/10 06:26:14;;;;;;;;;;;;;;;;;;10026611;28;19974;-68
2023/07/10 06:31:10;;;;;;;;;;;;;;;;;;10020192;28;20444;-68
2023/07/10 06:36:06;;;;;;;;;;;;;;;;;;10019660;28;20017;-70
2023/07/10 06:41:05;;;;;;;;;;;;;;;;;;10029043;28;19927;-70
2023/07/10 06:46:04;;;;;;;;;;;;;;;;;;10025163;28;19931;-69
2023/07/10 06:51:01;;;;;;;;;;;;;;;;;;10028818;28;19923;-69
2023/07/10 06:55:57;;;;;;;;;;;;;;;;;;10025650;28;19934;-70
2023/07/10 07:00:54;;;;;;;;;;;;;;;;;;10026147;28;19930;-70
2023/07/10 07:05:51;;;;;;;;;;;;;;;;;;10032067;28;19923;-69
2023/07/10 07:10:47;;;;;;;;;;;;;;;;;;10026122;28;19926;-69
2023/07/10 07:15:43;;;;;;;;;;;;;;;;;;10024655;28;19923;-69
2023/07/10 07:20:39;;;;;;;;;;;;;;;;;;10041758;28;19958;-69
2023/07/10 07:25:36;;;;;;;;;;;;;;;;;;10018710;28;19950;-69
2023/07/10 07:30:32;;;;;;;;;;;;;;;;;;10024280;28;19946;-69
2023/07/10 07:35:28;;;;;;;;;;;;;;;;;;10024763;28;19927;-69
2023/07/10 07:40:24;;;;;;;;;;;;;;;;;;10027901;28;19923;-69
2023/07/10 07:45:21;;;;;;;;;;;;;;;;;;10025488;28;19922;-69
2023/07/10 07:50:17;;;;;;;;;;;;;;;;;;10024249;28;19922;-69
2023/07/10 07:55:13;;;;;;;;;;;;;;;;;;10021732;28;19985;-69
2023/07/10 08:00:09;;;;;;;;;;;;;;;;;;10020142;28;19931;-69
2023/07/10 08:05:05;;;;;;;;;;;;;;;;;;10041497;28;20473;-70
2023/07/10 08:10:12;;;;;;;;;;;;;;;;;;10017596;28;20242;-70
2023/07/10 08:15:08;;;;;;;;;;;;;;;;;;10021982;28;19965;-70
2023/07/10 08:20:07;;;;;;;;;;;;;;;;;;10041435;28;19926;-70
2023/07/10 08:25:04;;;;;;;;;;;;;;;;;;10037605;28;19930;-70
2023/07/10 08:30:00;;;;;;;;;;;;;;;;;;10021589;29;20002;-69
2023/07/10 08:34:56;;;;;;;;;;;;;;;;;;10016969;28;19930;-69
2023/07/10 08:39:52;;;;;;;;;;;;;;;;;;10030740;28;19923;-69
2023/07/10 08:44:48;;;;;;;;;;;;;;;;;;10036864;28;19954;-69
2023/07/10 08:49:53;;;;;;;;;;;;;;;;;;10035383;28;20308;-69
2023/07/10 08:54:49;;;;;;;;;;;;;;;;;;10019464;29;19929;-69
2023/07/10 08:59:46;;;;;;;;;;;;;;;;;;10028710;28;20096;-69
2023/07/10 09:04:42;;;;;;;;;;;;;;;;;;10035812;28;19934;-69
2023/07/10 09:09:38;;;;;;;;;;;;;;;;;;10025258;28;19981;-69
2023/07/10 09:14:34;;;;;;;;;;;;;;;;;;10037503;28;19962;-69
2023/07/10 09:19:31;;;;;;;;;;;;;;;;;;10023006;28;19958;-69
2023/07/10 09:24:27;;;;;;;;;;;;;;;;;;10037207;28;20400;-69
2023/07/10 09:29:23;;;;;;;;;;;;;;;;;;10023033;28;19966;-69
2023/07/10 09:34:19;;;;;;;;;;;;;;;;;;10017314;28;19950;-69
2023/07/10 09:39:16;;;;;;;;;;;;;;;;;;10028903;28;19961;-69
2023/07/10 09:44:12;;;;;;;;;;;;;;;;;;10025854;28;20381;-69
2023/07/10 09:49:08;;;;;;;;;;;;;;;;;;10028953;28;19926;-69
2023/07/10 09:54:06;;;;;;;;;;;;;;;;;;10024365;28;19986;-70
2023/07/10 09:59:03;;;;;;;;;;;;;;;;;;10029442;28;20399;-70
2023/07/10 10:03:59;;;;;;;;;;;;;;;;;;10037695;28;20388;-69
2023/07/10 10:08:55;;;;;;;;;;;;;;;;;;10027532;28;20014;-70
2023/07/10 10:13:56;;;;;;;;;;;;;;;;;;10020707;28;19923;-69
2023/07/10 10:18:52;;;;;;;;;;;;;;;;;;10030419;28;19958;-70
2023/07/10 10:23:48;;;;;;;;;;;;;;;;;;10030955;28;19962;-70
2023/07/10 10:28:45;;;;;;;;;;;;;;;;;;10022813;28;19927;-70
2023/07/10 10:33:41;;;;;;;;;;;;;;;;;;10021566;29;19927;-70
2023/07/10 10:38:37;;;;;;;;;;;;;;;;;;10033854;28;19946;-70
2023/07/10 10:43:34;;;;;;;;;;;;;;;;;;10030607;28;19927;-70
2023/07/10 10:48:30;;;;;;;;;;;;;;;;;;10019080;28;19923;-70
2023/07/10 10:53:26;;;;;;;;;;;;;;;;;;10023685;28;19955;-70
2023/07/10 10:58:22;;;;;;;;;;;;;;;;;;10022936;28;20597;-70
2023/07/10 11:03:20;;;;;;;;;;;;;;;;;;10026982;28;19930;-70
2023/07/10 11:08:19;;;;;;;;;;;;;;;;;;10024913;28;19923;-70
2023/07/10 11:13:19;;;;;;;;;;;;;;;;;;10026024;28;19930;-70
2023/07/10 11:18:15;;;;;;;;;;;;;;;;;;10015017;28;19927;-70
2023/07/10 11:23:11;;;;;;;;;;;;;;;;;;10022462;28;20325;-70
2023/07/10 11:28:07;;;;;;;;;;;;;;;;;;10030929;28;20384;-68
2023/07/10 11:33:04;;;;;;;;;;;;;;;;;;10012957;28;19923;-70
2023/07/10 11:38:01;;;;;;;;;;;;;;;;;;10024708;28;19922;-70
2023/07/10 11:42:57;;;;;;;;;;;;;;;;;;10029032;28;20011;-69
2023/07/10 11:47:53;;;;;;;;;;;;;;;;;;10015593;28;20025;-69
2023/07/10 11:52:49;;;;;;;;;;;;;;;;;;10034163;28;20349;-69
2023/07/10 11:57:45;;;;;;;;;;;;;;;;;;10016173;28;19946;-69
2023/07/10 12:02:43;;;;;;;;;;;;;;;;;;10037822;28;19966;-70
2023/07/10 12:07:39;;;;;;;;;;;;;;;;;;10030097;28;19929;-69
2023/07/10 12:12:36;;;;;;;;;;;;;;;;;;10047767;28;19968;-69
2023/07/10 12:17:32;;;;;;;;;;;;;;;;;;10030945;28;20008;-69
2023/07/10 12:22:31;;;;;;;;;;;;;;;;;;10035916;28;20274;-69
2023/07/10 12:27:30;;;;;;;;;;;;;;;;;;10041625;28;19926;-70
2023/07/10 12:32:46;;;;;;;;;;;;;;;;;;10039053;28;20288;-69
2023/07/10 12:37:43;;;;;;;;;;;;;;;;;;10040409;28;19926;-69
2023/07/10 12:42:39;;;;;;;;;;;;;;;;;;10035600;28;20388;-70
2023/07/10 12:47:35;;;;;;;;;;;;;;;;;;10035664;28;19977;-70
2023/07/10 12:52:51;;;;;;;;;;;;;;;;;;10032046;28;19922;-70
2023/07/10 12:57:49;;;;;;;;;;;;;;;;;;10037078;28;19923;-70
2023/07/10 13:02:45;;;;;;;;;;;;;;;;;;10031728;28;19969;-70
2023/07/10 13:07:41;;;;;;;;;;;;;;;;;;10035048;28;19998;-70
2023/07/10 13:12:38;;;;;;;;;;;;;;;;;;10034926;28;19969;-70
2023/07/10 13:17:34;;;;;;;;;;;;;;;;;;10029660;28;19968;-70
2023/07/10 13:22:30;;;;;;;;;;;;;;;;;;10039019;28;19922;-70
2023/07/10 13:27:27;;;;;;;;;;;;;;;;;;10031438;28;19927;-70
2023/07/10 13:32:23;;;;;;;;;;;;;;;;;;10038178;28;19926;-70
2023/07/10 13:37:19;;;;;;;;;;;;;;;;;;10033942;28;19922;-70
2023/07/10 13:42:15;;;;;;;;;;;;;;;;;;10034135;28;19926;-70
2023/07/10 13:47:12;;;;;;;;;;;;;;;;;;10032801;28;19922;-67
2023/07/10 13:52:08;;;;;;;;;;;;;;;;;;10035375;28;19926;-70
2023/07/10 13:57:04;;;;;;;;;;;;;;;;;;10034176;28;19974;-70
2023/07/10 14:02:00;;;;;;;;;;;;;;;;;;10038388;28;19974;-70
2023/07/10 14:06:57;;;;;;;;;;;;;;;;;;10031443;28;19957;-69
2023/07/10 14:11:55;;;;;;;;;;;;;;;;;;10033341;28;19954;-70
2023/07/10 14:16:51;;;;;;;;;;;;;;;;;;10026280;28;19955;-70
2023/07/10 14:21:47;;;;;;;;;;;;;;;;;;10029106;28;20299;-70
2023/07/10 14:26:44;;;;;;;;;;;;;;;;;;10034443;28;19927;-70
2023/07/10 14:31:40;;;;;;;;;;;;;;;;;;10043393;28;19923;-70
2023/07/10 14:36:36;;;;;;;;;;;;;;;;;;10032652;28;19929;-70
2023/07/10 14:41:32;;;;;;;;;;;;;;;;;;10040398;28;19929;-69
2023/07/10 14:46:29;;;;;;;;;;;;;;;;;;10029420;28;20095;-69
2023/07/10 14:51:25;;;;;;;;;;;;;;;;;;10041716;28;19974;-68
2023/07/10 14:56:21;;;;;;;;;;;;;;;;;;10030894;28;19951;-68
2023/07/10 15:01:17;;;;;;;;;;;;;;;;;;10033425;28;20456;-68
2023/07/10 15:06:14;;;;;;;;;;;;;;;;;;10026026;28;19929;-68
2023/07/10 15:11:10;;;;;;;;;;;;;;;;;;10029721;28;19998;-68
2023/07/10 15:16:06;;;;;;;;;;;;;;;;;;10017400;28;19953;-68
2023/07/10 15:21:02;;;;;;;;;;;;;;;;;;10032998;28;19935;-68
2023/07/10 15:25:59;;;;;;;;;;;;;;;;;;10039873;28;20561;-68
2023/07/10 15:30:55;;;;;;;;;;;;;;;;;;10033843;28;19931;-68
2023/07/10 15:35:52;;;;;;;;;;;;;;;;;;10027604;28;19939;-68
2023/07/10 15:40:52;;;;;;;;;;;;;;;;;;10026860;28;19926;-68
2023/07/10 15:45:48;;;;;;;;;;;;;;;;;;10037423;28;20296;-68
2023/07/10 15:50:44;;;;;;;;;;;;;;;;;;10021809;28;19954;-68
2023/07/10 15:55:41;;;;;;;;;;;;;;;;;;10025506;28;19977;-68
2023/07/10 16:00:38;;;;;;;;;;;;;;;;;;10028267;28;20349;-68
2023/07/10 16:05:34;;;;;;;;;;;;;;;;;;10026371;28;19960;-69
2023/07/10 16:10:30;;;;;;;;;;;;;;;;;;10030412;28;19927;-68
2023/07/10 16:15:26;;;;;;;;;;;;;;;;;;10028842;28;19961;-68
2023/07/10 16:20:23;;;;;;;;;;;;;;;;;;10034724;28;19923;-69
2023/07/10 16:25:19;;;;;;;;;;;;;;;;;;10037252;28;19927;-68
2023/07/10 16:30:15;;;;;;;;;;;;;;;;;;10029701;28;19929;-68
2023/07/10 16:35:12;;;;;;;;;;;;;;;;;;10029199;28;19923;-68
2023/07/10 16:40:08;;;;;;;;;;;;;;;;;;10030057;28;19937;-68
2023/07/10 16:45:04;;;;;;;;;;;;;;;;;;10031969;28;19966;-68
2023/07/10 16:50:00;;;;;;;;;;;;;;;;;;10030297;29;19922;-68
2023/07/10 16:54:57;;;;;;;;;;;;;;;;;;10025194;28;20644;-68
2023/07/10 16:59:53;;;;;;;;;;;;;;;;;;10027245;28;20001;-68
2023/07/10 17:04:49;;;;;;;;;;;;;;;;;;10029127;28;19930;-69
2023/07/10 17:09:45;;;;;;;;;;;;;;;;;;10036255;28;19962;-68
2023/07/10 17:14:42;;;;;;;;;;;;;;;;;;10031990;28;20005;-69
2023/07/10 17:19:38;;;;;;;;;;;;;;;;;;10030213;28;19927;-68
2023/07/10 17:24:35;;;;;;;;;;;;;;;;;;10035200;28;19945;-69
2023/07/10 17:29:31;;;;;;;;;;;;;;;;;;10026277;28;19961;-68
2023/07/10 17:34:28;;;;;;;;;;;;;;;;;;10034906;28;20475;-69
2023/07/10 17:39:24;;;;;;;;;;;;;;;;;;10030712;28;19933;-68
2023/07/10 17:44:20;;;;;;;;;;;;;;;;;;10036829;28;19982;-69
2023/07/10 17:49:16;;;;;;;;;;;;;;;;;;10044258;28;19954;-69
2023/07/10 17:54:13;;;;;;;;;;;;;;;;;;10047551;28;20004;-69
2023/07/10 17:59:09;;;;;;;;;;;;;;;;;;10045353;28;19930;-68
2023/07/10 18:04:06;;;;;;;;;;;;;;;;;;10030131;28;19929;-68
2023/07/10 18:09:02;;;;;;;;;;;;;;;;;;10034837;28;20483;-68
2023/07/10 18:13:58;;;;;;;;;;;;;;;;;;10040226;28;20369;-68
2023/07/10 18:18:55;;;;;;;;;;;;;;;;;;10031330;28;19927;-68
2023/07/10 18:23:51;;;;;;;;;;;;;;;;;;10022145;28;20626;-68
2023/07/10 18:28:49;;;;;;;;;;;;;;;;;;10033768;28;19931;-68
2023/07/10 18:33:47;;;;;;;;;;;;;;;;;;10030933;28;20304;-69
2023/07/10 18:38:43;;;;;;;;;;;;;;;;;;10039504;28;19953;-68
2023/07/10 18:43:40;;;;;;;;;;;;;;;;;;10042698;28;19999;-68
2023/07/10 18:48:39;;;;;;;;;;;;;;;;;;10027650;28;19926;-68
2023/07/10 18:53:35;;;;;;;;;;;;;;;;;;10051396;28;19923;-68
2023/07/10 18:58:31;;;;;;;;;;;;;;;;;;10032966;28;19930;-68
2023/07/10 19:03:27;;;;;;;;;;;;;;;;;;10031858;28;19923;-68
2023/07/10 19:08:24;;;;;;;;;;;;;;;;;;10028055;28;19923;-68
2023/07/10 19:13:20;;;;;;;;;;;;;;;;;;10032535;28;20331;-68
2023/07/10 19:18:16;;;;;;;;;;;;;;;;;;10028092;28;19927;-68
2023/07/10 19:23:13;;;;;;;;;;;;;;;;;;10029038;28;19930;-68
2023/07/10 19:28:09;;;;;;;;;;;;;;;;;;10025551;28;20379;-68
2023/07/10 19:33:05;;;;;;;;;;;;;;;;;;10023057;28;19946;-68
2023/07/10 19:38:02;;;;;;;;;;;;;;;;;;10029369;28;19927;-68
2023/07/10 19:42:58;;;;;;;;;;;;;;;;;;10029197;28;19927;-68
2023/07/10 19:47:55;;;;;;;;;;;;;;;;;;10029367;28;19927;-68
2023/07/10 19:52:51;;;;;;;;;;;;;;;;;;10040712;28;20400;-68
2023/07/10 19:57:48;;;;;;;;;;;;;;;;;;10029436;28;19930;-68
2023/07/10 20:02:47;;;;;;;;;;;;;;;;;;10028417;28;19923;-68
2023/07/10 20:07:44;;;;;;;;;;;;;;;;;;10019852;28;19930;-68
2023/07/10 20:12:40;;;;;;;;;;;;;;;;;;10028088;28;19923;-68
2023/07/10 20:17:38;;;;;;;;;;;;;;;;;;10024430;28;20380;-68
2023/07/10 20:22:34;;;;;;;;;;;;;;;;;;10026564;28;19930;-68
2023/07/10 20:27:31;;;;;;;;;;;;;;;;;;10037702;28;19966;-68
2023/07/10 20:32:27;;;;;;;;;;;;;;;;;;10041315;28;19981;-68
2023/07/10 20:37:26;;;;;;;;;;;;;;;;;;10038421;28;20278;-68
2023/07/10 20:42:22;;;;;;;;;;;;;;;;;;10033256;28;19950;-68
2023/07/10 20:47:19;;;;;;;;;;;;;;;;;;10041376;28;19927;-68
2023/07/10 20:52:15;;;;;;;;;;;;;;;;;;10037696;28;19961;-68
2023/07/10 20:57:12;;;;;;;;;;;;;;;;;;10036579;28;19962;-67
2023/07/10 21:02:08;;;;;;;;;;;;;;;;;;10032173;28;19970;-68
2023/07/10 21:07:04;;;;;;;;;;;;;;;;;;10030555;28;19978;-68
2023/07/10 21:12:01;;;;;;;;;;;;;;;;;;10030432;28;19922;-68
2023/07/10 21:16:57;;;;;;;;;;;;;;;;;;10062997;28;19934;-68
2023/07/10 21:21:53;;;;;;;;;;;;;;;;;;10044197;28;19923;-66
2023/07/10 21:26:49;;;;;;;;;;;;;;;;;;10031460;28;19968;-67
2023/07/10 21:31:46;;;;;;;;;;;;;;;;;;10038054;28;20345;-67
2023/07/10 21:36:42;;;;;;;;;;;;;;;;;;10034008;28;19929;-65
2023/07/10 21:41:39;;;;;;;;;;;;;;;;;;10036382;28;20440;-68
2023/07/10 21:46:36;;;;;;;;;;;;;;;;;;10037106;28;21882;-67
2023/07/10 21:51:34;;;;;;;;;;;;;;;;;;10030321;28;19931;-67
2023/07/10 21:56:30;;;;;;;;;;;;;;;;;;10030032;28;20352;-68
2023/07/10 22:01:26;;;;;;;;;;;;;;;;;;10033694;28;19926;-67
2023/07/10 22:06:24;;;;;;;;;;;;;;;;;;10027490;28;19922;-67
2023/07/10 22:11:21;;;;;;;;;;;;;;;;;;10035116;28;20498;-67
2023/07/10 22:16:22;;;;;;;;;;;;;;;;;;10035691;28;19981;-67
2023/07/10 22:21:18;;;;;;;;;;;;;;;;;;10049564;28;19933;-66
2023/07/10 22:26:14;;;;;;;;;;;;;;;;;;10027253;28;20021;-67
2023/07/10 22:31:11;;;;;;;;;;;;;;;;;;10031333;28;19954;-66
2023/07/10 22:36:07;;;;;;;;;;;;;;;;;;10027982;28;19926;-66
2023/07/10 22:41:04;;;;;;;;;;;;;;;;;;10034847;28;19958;-67
2023/07/10 22:46:00;;;;;;;;;;;;;;;;;;10026829;28;19985;-66
2023/07/10 22:50:56;;;;;;;;;;;;;;;;;;10023391;28;19969;-65
2023/07/10 22:55:53;;;;;;;;;;;;;;;;;;10033306;28;20397;-67
2023/07/10 23:00:50;;;;;;;;;;;;;;;;;;10026712;28;19957;-67
2023/07/10 23:05:46;;;;;;;;;;;;;;;;;;10029665;28;19926;-67
2023/07/10 23:10:42;;;;;;;;;;;;;;;;;;10032746;28;20645;-66
2023/07/10 23:15:38;;;;;;;;;;;;;;;;;;10026382;28;19958;-66
2023/07/10 23:20:34;;;;;;;;;;;;;;;;;;10030772;28;19974;-66
2023/07/10 23:25:31;;;;;;;;;;;;;;;;;;10021004;28;19923;-66
2023/07/10 23:30:27;;;;;;;;;;;;;;;;;;10025243;28;19938;-66
2023/07/10 23:35:24;;;;;;;;;;;;;;;;;;10026837;28;19958;-66
2023/07/10 23:40:20;;;;;;;;;;;;;;;;;;10029873;28;19922;-66
2023/07/10 23:45:16;;;;;;;;;;;;;;;;;;10029168;28;19930;-67
2023/07/10 23:50:12;;;;;;;;;;;;;;;;;;10025327;28;19954;-66
2023/07/10 23:55:09;;;;;;;;;;;;;;;;;;10032858;28;20018;-66
